Pagina principale
METAR-TAF:

METAR-TAF

Aeroporti :

Beverly, Massachusetts, Stati Uniti

latitudine: 42-35-01N, longitudine: 070-54-59W, altezza: 33 m

Osservazione

Il bollettino è stato emesso 56 minuti fa, alle 01:53 UTC
Vento 5 kt da sud
Temperature 15°C
Umidità 77%
Pressione 1020 hPa
Visibilità: 16.1 km
Cielo sereno

METAR: KBVY 220153Z AUTO 17005KT 10SM CLR 15/11 A3011 RMK AO2 SLP192 T01500106

Ora: 22:49 (02:49 UTC)


TAF: mancante

Osservazioni e previsioni meteorologiche di più di 4000 aeroporti (messaggi METAR e TAF).

Le stazioni disponibili sono rappresentate dai dischi gialli e rossi sulla carta.

Puntare il mouse per vedere il nome della stazione.

Clicca sopra per visualizzare le osservazioni e previsioni meteorologiche.

Per cambiare la mappa : fare clic sui pulsanti verdi con una croce nera per ingrandire, il pulsante verde con un trattino per diminuire, o sulla freccia verde per le mappe adiacenti.


METAR-TAF: